sensor_id;sensor_type;location;lat;lon;timestamp;pressure;altitude;pressure_sealevel;temperature;humidity
71361;BME280;59166;48.908;1.870;2022-08-25T00:03:14;100231.22;;;22.98;55.62
71361;BME280;59166;48.908;1.870;2022-08-25T00:08:14;100229.47;;;22.94;55.58
71361;BME280;59166;48.908;1.870;2022-08-25T00:13:17;100218.91;;;22.84;56.08
71361;BME280;59166;48.908;1.870;2022-08-25T00:18:17;100213.09;;;22.73;56.43
71361;BME280;59166;48.908;1.870;2022-08-25T00:23:18;100210.44;;;22.65;56.83
71361;BME280;59166;48.908;1.870;2022-08-25T00:28:20;100209.25;;;22.54;56.70
71361;BME280;59166;48.908;1.870;2022-08-25T00:33:21;100199.59;;;22.47;57.08
71361;BME280;59166;48.908;1.870;2022-08-25T00:38:22;100205.84;;;22.24;57.69
71361;BME280;59166;48.908;1.870;2022-08-25T00:43:25;100191.59;;;22.10;59.25
71361;BME280;59166;48.908;1.870;2022-08-25T00:48:26;100185.31;;;22.09;58.59
71361;BME280;59166;48.908;1.870;2022-08-25T00:53:27;100177.72;;;22.06;58.84
71361;BME280;59166;48.908;1.870;2022-08-25T00:58:31;100168.53;;;22.02;59.20
71361;BME280;59166;48.908;1.870;2022-08-25T01:03:33;100179.88;;;22.00;58.83
71361;BME280;59166;48.908;1.870;2022-08-25T01:08:34;100185.59;;;21.95;58.15
71361;BME280;59166;48.908;1.870;2022-08-25T01:13:40;100190.50;;;21.90;58.54
71361;BME280;59166;48.908;1.870;2022-08-25T01:18:47;100202.41;;;21.82;58.82
71361;BME280;59166;48.908;1.870;2022-08-25T01:23:51;100192.72;;;21.76;59.53
71361;BME280;59166;48.908;1.870;2022-08-25T01:28:52;100180.97;;;21.67;59.69
71361;BME280;59166;48.908;1.870;2022-08-25T01:33:54;100174.41;;;21.59;59.82
71361;BME280;59166;48.908;1.870;2022-08-25T01:38:56;100171.53;;;21.56;60.03
71361;BME280;59166;48.908;1.870;2022-08-25T01:43:57;100177.66;;;21.40;59.80
71361;BME280;59166;48.908;1.870;2022-08-25T01:48:58;100171.88;;;21.33;60.08
71361;BME280;59166;48.908;1.870;2022-08-25T01:54:01;100172.28;;;21.23;61.03
71361;BME280;59166;48.908;1.870;2022-08-25T01:59:02;100160.19;;;21.16;61.33
71361;BME280;59166;48.908;1.870;2022-08-25T02:04:03;100141.72;;;21.04;61.72
71361;BME280;59166;48.908;1.870;2022-08-25T02:09:08;100125.34;;;20.87;62.71
71361;BME280;59166;48.908;1.870;2022-08-25T02:14:10;100124.19;;;20.88;62.44
71361;BME280;59166;48.908;1.870;2022-08-25T02:19:12;100126.44;;;20.86;62.37
71361;BME280;59166;48.908;1.870;2022-08-25T02:24:15;100128.25;;;20.82;62.92
71361;BME280;59166;48.908;1.870;2022-08-25T02:29:16;100114.22;;;20.75;62.91
71361;BME280;59166;48.908;1.870;2022-08-25T02:34:16;100116.44;;;20.61;63.14
71361;BME280;59166;48.908;1.870;2022-08-25T02:39:19;100118.03;;;20.62;63.60
71361;BME280;59166;48.908;1.870;2022-08-25T02:44:19;100121.44;;;20.59;63.80
71361;BME280;59166;48.908;1.870;2022-08-25T02:49:20;100113.72;;;20.52;64.01
71361;BME280;59166;48.908;1.870;2022-08-25T02:54:22;100116.03;;;20.41;63.57
71361;BME280;59166;48.908;1.870;2022-08-25T02:59:23;100113.38;;;20.24;64.59
71361;BME280;59166;48.908;1.870;2022-08-25T03:04:23;100112.50;;;20.03;65.63
71361;BME280;59166;48.908;1.870;2022-08-25T03:09:26;100112.50;;;20.03;65.84
71361;BME280;59166;48.908;1.870;2022-08-25T03:14:27;100108.25;;;19.97;65.85
71361;BME280;59166;48.908;1.870;2022-08-25T03:19:28;100077.63;;;19.95;65.89
71361;BME280;59166;48.908;1.870;2022-08-25T03:24:30;100073.63;;;19.92;66.11
71361;BME280;59166;48.908;1.870;2022-08-25T03:29:32;100066.22;;;19.84;66.16
71361;BME280;59166;48.908;1.870;2022-08-25T03:34:33;100071.53;;;19.81;66.53
71361;BME280;59166;48.908;1.870;2022-08-25T03:39:35;100068.66;;;19.77;67.81
71361;BME280;59166;48.908;1.870;2022-08-25T03:44:36;100074.16;;;19.69;67.60
71361;BME280;59166;48.908;1.870;2022-08-25T03:49:36;100069.66;;;19.64;68.14
71361;BME280;59166;48.908;1.870;2022-08-25T03:54:38;100080.31;;;19.57;68.66
71361;BME280;59166;48.908;1.870;2022-08-25T03:59:39;100091.13;;;19.54;68.91
71361;BME280;59166;48.908;1.870;2022-08-25T04:04:40;100097.75;;;19.44;69.71
71361;BME280;59166;48.908;1.870;2022-08-25T04:09:42;100091.28;;;19.40;69.24
71361;BME280;59166;48.908;1.870;2022-08-25T04:14:42;100102.59;;;19.38;70.27
71361;BME280;59166;48.908;1.870;2022-08-25T04:19:43;100099.50;;;19.23;70.72
71361;BME280;59166;48.908;1.870;2022-08-25T04:24:45;100090.03;;;19.29;70.04
71361;BME280;59166;48.908;1.870;2022-08-25T04:29:46;100095.03;;;19.35;69.81
71361;BME280;59166;48.908;1.870;2022-08-25T04:34:46;100106.94;;;19.31;70.39
71361;BME280;59166;48.908;1.870;2022-08-25T04:39:48;100119.50;;;19.32;70.02
71361;BME280;59166;48.908;1.870;2022-08-25T04:44:49;100117.56;;;19.24;70.45
71361;BME280;59166;48.908;1.870;2022-08-25T04:49:50;100117.56;;;19.24;70.99
71361;BME280;59166;48.908;1.870;2022-08-25T04:54:52;100124.13;;;19.06;71.53
71361;BME280;59166;48.908;1.870;2022-08-25T04:59:52;100127.19;;;19.04;71.67
71361;BME280;59166;48.908;1.870;2022-08-25T05:04:53;100128.16;;;19.08;71.34
71361;BME280;59166;48.908;1.870;2022-08-25T05:09:56;100139.63;;;19.10;71.21
71361;BME280;59166;48.908;1.870;2022-08-25T05:14:56;100139.91;;;19.00;71.59
71361;BME280;59166;48.908;1.870;2022-08-25T05:19:57;100137.34;;;19.04;71.21
71361;BME280;59166;48.908;1.870;2022-08-25T05:24:59;100149.28;;;19.16;70.80
71361;BME280;59166;48.908;1.870;2022-08-25T05:30:00;100152.03;;;19.16;70.72
71361;BME280;59166;48.908;1.870;2022-08-25T05:35:00;100157.50;;;19.16;70.56
71361;BME280;59166;48.908;1.870;2022-08-25T05:40:03;100155.28;;;19.18;70.71
71361;BME280;59166;48.908;1.870;2022-08-25T05:45:05;100150.09;;;19.17;70.88
71361;BME280;59166;48.908;1.870;2022-08-25T05:50:07;100145.91;;;19.11;70.99
71361;BME280;59166;48.908;1.870;2022-08-25T05:55:10;100141.25;;;19.20;70.94
71361;BME280;59166;48.908;1.870;2022-08-25T06:00:11;100126.75;;;19.28;70.44
71361;BME280;59166;48.908;1.870;2022-08-25T06:05:15;100128.53;;;19.41;70.83
71361;BME280;59166;48.908;1.870;2022-08-25T06:10:18;100124.50;;;19.56;70.67
71361;BME280;59166;48.908;1.870;2022-08-25T06:15:21;100131.06;;;19.72;70.09
71361;BME280;59166;48.908;1.870;2022-08-25T06:20:25;100138.16;;;19.81;71.25
71361;BME280;59166;48.908;1.870;2022-08-25T06:25:27;100146.34;;;19.90;69.86
71361;BME280;59166;48.908;1.870;2022-08-25T06:30:27;100125.72;;;20.01;69.18
71361;BME280;59166;48.908;1.870;2022-08-25T06:35:28;100135.66;;;20.14;69.22
71361;BME280;59166;48.908;1.870;2022-08-25T06:40:30;100139.81;;;20.29;69.36
71361;BME280;59166;48.908;1.870;2022-08-25T06:45:31;100139.25;;;20.44;69.19
71361;BME280;59166;48.908;1.870;2022-08-25T06:50:32;100136.78;;;20.60;70.03
71361;BME280;59166;48.908;1.870;2022-08-25T06:55:34;100135.88;;;20.76;69.69
71361;BME280;59166;48.908;1.870;2022-08-25T07:00:35;100145.72;;;21.07;67.99
71361;BME280;59166;48.908;1.870;2022-08-25T07:05:35;100142.88;;;21.24;67.54
71361;BME280;59166;48.908;1.870;2022-08-25T07:10:37;100139.75;;;21.25;67.09
71361;BME280;59166;48.908;1.870;2022-08-25T07:15:39;100132.06;;;21.39;64.59
71361;BME280;59166;48.908;1.870;2022-08-25T07:20:40;100142.09;;;21.77;63.44
71361;BME280;59166;48.908;1.870;2022-08-25T07:25:42;100197.28;;;22.37;62.29
71361;BME280;59166;48.908;1.870;2022-08-25T07:30:43;100228.41;;;22.50;61.62
71361;BME280;59166;48.908;1.870;2022-08-25T07:35:44;100210.03;;;22.42;59.57
71361;BME280;59166;48.908;1.870;2022-08-25T07:40:46;100220.97;;;22.50;61.46
71361;BME280;59166;48.908;1.870;2022-08-25T07:45:47;100208.72;;;22.27;62.56
71361;BME280;59166;48.908;1.870;2022-08-25T07:50:48;100211.59;;;22.76;61.90
71361;BME280;59166;48.908;1.870;2022-08-25T07:55:50;100215.59;;;23.39;60.57
71361;BME280;59166;48.908;1.870;2022-08-25T08:00:51;100202.16;;;23.77;58.22
71361;BME280;59166;48.908;1.870;2022-08-25T08:05:52;100217.50;;;23.90;57.63
71361;BME280;59166;48.908;1.870;2022-08-25T08:10:54;100226.81;;;24.41;54.19
71361;BME280;59166;48.908;1.870;2022-08-25T08:15:55;100212.31;;;24.91;52.97
71361;BME280;59166;48.908;1.870;2022-08-25T08:20:55;100225.22;;;24.72;52.66
71361;BME280;59166;48.908;1.870;2022-08-25T08:25:58;100230.34;;;24.85;53.13
71361;BME280;59166;48.908;1.870;2022-08-25T08:30:58;100233.72;;;24.94;52.01
71361;BME280;59166;48.908;1.870;2022-08-25T08:36:02;100232.00;;;25.06;51.54
71361;BME280;59166;48.908;1.870;2022-08-25T08:41:19;100234.19;;;25.31;51.90
71361;BME280;59166;48.908;1.870;2022-08-25T08:46:21;100244.63;;;25.73;50.97
71361;BME280;59166;48.908;1.870;2022-08-25T08:51:24;100242.75;;;25.77;50.87
71361;BME280;59166;48.908;1.870;2022-08-25T08:56:34;100229.25;;;26.33;49.43
71361;BME280;59166;48.908;1.870;2022-08-25T09:01:40;100222.81;;;26.29;49.22
71361;BME280;59166;48.908;1.870;2022-08-25T09:06:43;100219.19;;;26.89;48.43
71361;BME280;59166;48.908;1.870;2022-08-25T09:11:52;100216.91;;;27.47;47.28
71361;BME280;59166;48.908;1.870;2022-08-25T09:17:01;100218.34;;;28.01;44.60
71361;BME280;59166;48.908;1.870;2022-08-25T09:22:09;100219.09;;;28.28;44.90
71361;BME280;59166;48.908;1.870;2022-08-25T09:27:22;100218.53;;;28.52;44.10
71361;BME280;59166;48.908;1.870;2022-08-25T09:32:30;100211.38;;;28.91;42.95
71361;BME280;59166;48.908;1.870;2022-08-25T09:37:31;100213.94;;;29.18;42.36
71361;BME280;59166;48.908;1.870;2022-08-25T09:42:47;100193.78;;;29.35;42.04
71361;BME280;59166;48.908;1.870;2022-08-25T09:47:48;100196.47;;;29.24;41.05
71361;BME280;59166;48.908;1.870;2022-08-25T09:52:49;100199.31;;;29.28;40.64
71361;BME280;59166;48.908;1.870;2022-08-25T09:57:52;100192.22;;;29.41;41.59
71361;BME280;59166;48.908;1.870;2022-08-25T10:03:06;100194.41;;;29.79;41.34
71361;BME280;59166;48.908;1.870;2022-08-25T10:08:11;100188.84;;;29.83;41.98
71361;BME280;59166;48.908;1.870;2022-08-25T10:13:16;100190.13;;;29.99;42.18
71361;BME280;59166;48.908;1.870;2022-08-25T10:18:23;100183.75;;;29.99;41.89
71361;BME280;59166;48.908;1.870;2022-08-25T10:23:26;100178.59;;;30.12;42.05
71361;BME280;59166;48.908;1.870;2022-08-25T10:28:32;100181.03;;;30.38;42.47
71361;BME280;59166;48.908;1.870;2022-08-25T10:33:44;100180.69;;;30.46;41.17
71361;BME280;59166;48.908;1.870;2022-08-25T10:38:52;100180.28;;;30.55;39.88
71361;BME280;59166;48.908;1.870;2022-08-25T10:44:01;100173.91;;;30.69;40.02
71361;BME280;59166;48.908;1.870;2022-08-25T10:49:09;100180.66;;;30.85;36.92
71361;BME280;59166;48.908;1.870;2022-08-25T10:54:24;100182.28;;;31.04;38.11
71361;BME280;59166;48.908;1.870;2022-08-25T10:59:46;100176.66;;;31.25;37.33
71361;BME280;59166;48.908;1.870;2022-08-25T11:04:53;100183.00;;;31.33;37.04
71361;BME280;59166;48.908;1.870;2022-08-25T11:10:03;100184.59;;;31.37;36.80
71361;BME280;59166;48.908;1.870;2022-08-25T11:15:10;100181.34;;;31.49;38.02
71361;BME280;59166;48.908;1.870;2022-08-25T11:20:24;100182.09;;;31.71;37.80
71361;BME280;59166;48.908;1.870;2022-08-25T11:25:36;100184.44;;;31.80;37.29
71361;BME280;59166;48.908;1.870;2022-08-25T12:06:14;100191.22;;;32.51;36.43
71361;BME280;59166;48.908;1.870;2022-08-25T12:11:41;100199.34;;;32.35;36.38
71361;BME280;59166;48.908;1.870;2022-08-25T12:27:35;100196.50;;;31.63;38.44
71361;BME280;59166;48.908;1.870;2022-08-25T12:32:51;100200.53;;;31.40;39.16
71361;BME280;59166;48.908;1.870;2022-08-25T12:38:27;100198.13;;;31.57;38.40
71361;BME280;59166;48.908;1.870;2022-08-25T12:43:39;100206.28;;;32.13;37.45
71361;BME280;59166;48.908;1.870;2022-08-25T12:54:51;100209.91;;;32.03;35.89
71361;BME280;59166;48.908;1.870;2022-08-25T13:00:09;100199.75;;;31.36;38.16
71361;BME280;59166;48.908;1.870;2022-08-25T13:16:35;100195.81;;;31.02;38.84
71361;BME280;59166;48.908;1.870;2022-08-25T13:27:58;100179.44;;;31.29;36.91
71361;BME280;59166;48.908;1.870;2022-08-25T13:33:34;100185.53;;;32.00;35.93
71361;BME280;59166;48.908;1.870;2022-08-25T13:39:17;100182.75;;;31.96;36.08
71361;BME280;59166;48.908;1.870;2022-08-25T13:50:41;100182.25;;;31.25;36.93
71361;BME280;59166;48.908;1.870;2022-08-25T13:56:36;100165.50;;;31.25;36.34
71361;BME280;59166;48.908;1.870;2022-08-25T14:01:56;100183.00;;;31.26;37.84
71361;BME280;59166;48.908;1.870;2022-08-25T14:24:42;100194.91;;;31.62;36.69
71361;BME280;59166;48.908;1.870;2022-08-25T14:30:29;100201.34;;;31.41;36.05
71361;BME280;59166;48.908;1.870;2022-08-25T14:35:49;100191.00;;;31.20;37.29
71361;BME280;59166;48.908;1.870;2022-08-25T14:41:12;100199.38;;;30.88;39.23
71361;BME280;59166;48.908;1.870;2022-08-25T14:46:34;100187.03;;;30.89;39.27
71361;BME280;59166;48.908;1.870;2022-08-25T14:58:01;100212.56;;;30.84;39.89
71361;BME280;59166;48.908;1.870;2022-08-25T15:03:45;100213.38;;;30.78;39.14
71361;BME280;59166;48.908;1.870;2022-08-25T15:08:55;100209.78;;;30.67;39.01
71361;BME280;59166;48.908;1.870;2022-08-25T15:19:45;100211.25;;;30.11;39.16
71361;BME280;59166;48.908;1.870;2022-08-25T15:24:46;100212.41;;;29.99;39.96
71361;BME280;59166;48.908;1.870;2022-08-25T15:29:47;100215.19;;;29.96;40.23
71361;BME280;59166;48.908;1.870;2022-08-25T15:34:49;100221.88;;;29.84;40.54
71361;BME280;59166;48.908;1.870;2022-08-25T15:39:50;100222.59;;;29.71;40.86
71361;BME280;59166;48.908;1.870;2022-08-25T15:44:50;100223.97;;;29.33;41.42
71361;BME280;59166;48.908;1.870;2022-08-25T15:50:01;100230.97;;;29.09;42.34
71361;BME280;59166;48.908;1.870;2022-08-25T15:55:03;100222.06;;;28.89;41.88
71361;BME280;59166;48.908;1.870;2022-08-25T16:00:07;100231.03;;;28.69;42.35
71361;BME280;59166;48.908;1.870;2022-08-25T16:05:10;100233.16;;;28.45;43.34
71361;BME280;59166;48.908;1.870;2022-08-25T16:10:11;100239.53;;;28.09;43.54
71361;BME280;59166;48.908;1.870;2022-08-25T16:15:11;100244.47;;;27.93;43.72
71361;BME280;59166;48.908;1.870;2022-08-25T16:20:14;100227.22;;;27.77;44.38
71361;BME280;59166;48.908;1.870;2022-08-25T16:25:15;100231.91;;;27.73;44.12
71361;BME280;59166;48.908;1.870;2022-08-25T16:30:17;100245.75;;;27.69;44.80
71361;BME280;59166;48.908;1.870;2022-08-25T16:35:19;100241.22;;;27.58;45.51
71361;BME280;59166;48.908;1.870;2022-08-25T16:40:20;100249.66;;;27.38;46.39
71361;BME280;59166;48.908;1.870;2022-08-25T16:45:20;100253.91;;;27.32;46.58
71361;BME280;59166;48.908;1.870;2022-08-25T16:50:22;100266.28;;;27.12;47.36
71361;BME280;59166;48.908;1.870;2022-08-25T16:55:23;100266.47;;;27.00;47.93
71361;BME280;59166;48.908;1.870;2022-08-25T17:00:27;100266.69;;;26.88;48.70
71361;BME280;59166;48.908;1.870;2022-08-25T17:05:30;100271.06;;;26.70;48.54
71361;BME280;59166;48.908;1.870;2022-08-25T17:10:34;100280.31;;;26.55;49.40
71361;BME280;59166;48.908;1.870;2022-08-25T17:15:39;100272.97;;;26.43;49.72
71361;BME280;59166;48.908;1.870;2022-08-25T17:20:41;100278.22;;;26.48;50.58
71361;BME280;59166;48.908;1.870;2022-08-25T17:25:42;100278.88;;;26.41;51.13
71361;BME280;59166;48.908;1.870;2022-08-25T17:30:43;100276.25;;;26.29;50.70
71361;BME280;59166;48.908;1.870;2022-08-25T17:35:46;100284.41;;;26.03;52.08
71361;BME280;59166;48.908;1.870;2022-08-25T17:40:47;100289.41;;;25.78;53.18
71361;BME280;59166;48.908;1.870;2022-08-25T17:45:48;100287.34;;;25.56;53.88
71361;BME280;59166;48.908;1.870;2022-08-25T17:50:51;100289.88;;;25.45;54.48
71361;BME280;59166;48.908;1.870;2022-08-25T17:55:56;100304.75;;;25.25;55.33
71361;BME280;59166;48.908;1.870;2022-08-25T18:00:57;100316.00;;;25.01;56.54
71361;BME280;59166;48.908;1.870;2022-08-25T18:06:00;100317.09;;;24.96;56.70
71361;BME280;59166;48.908;1.870;2022-08-25T18:11:00;100320.53;;;24.78;57.59
71361;BME280;59166;48.908;1.870;2022-08-25T18:16:02;100322.78;;;24.60;58.44
71361;BME280;59166;48.908;1.870;2022-08-25T18:21:08;100320.84;;;24.33;59.49
71361;BME280;59166;48.908;1.870;2022-08-25T18:26:10;100326.31;;;24.17;60.44
71361;BME280;59166;48.908;1.870;2022-08-25T18:31:11;100330.34;;;24.20;60.54
71361;BME280;59166;48.908;1.870;2022-08-25T18:36:13;100328.16;;;24.25;60.45
71361;BME280;59166;48.908;1.870;2022-08-25T18:41:14;100341.97;;;24.13;60.40
71361;BME280;59166;48.908;1.870;2022-08-25T18:46:14;100353.19;;;23.80;61.14
71361;BME280;59166;48.908;1.870;2022-08-25T18:51:16;100346.41;;;23.66;61.26
71361;BME280;59166;48.908;1.870;2022-08-25T18:56:17;100353.66;;;23.46;61.98
71361;BME280;59166;48.908;1.870;2022-08-25T19:01:18;100359.31;;;23.37;62.22
71361;BME280;59166;48.908;1.870;2022-08-25T19:06:20;100367.03;;;23.11;62.31
71361;BME280;59166;48.908;1.870;2022-08-25T19:11:21;100376.22;;;23.03;62.91
71361;BME280;59166;48.908;1.870;2022-08-25T19:16:31;100383.44;;;22.95;63.15
71361;BME280;59166;48.908;1.870;2022-08-25T19:21:34;100381.13;;;22.97;63.58
71361;BME280;59166;48.908;1.870;2022-08-25T19:26:36;100393.16;;;22.81;63.77
71361;BME280;59166;48.908;1.870;2022-08-25T19:31:39;100399.81;;;22.80;63.37
71361;BME280;59166;48.908;1.870;2022-08-25T19:36:42;100401.84;;;22.71;62.91
71361;BME280;59166;48.908;1.870;2022-08-25T19:41:43;100410.44;;;22.48;63.85
71361;BME280;59166;48.908;1.870;2022-08-25T19:46:44;100421.19;;;22.41;63.59
71361;BME280;59166;48.908;1.870;2022-08-25T19:51:48;100425.28;;;22.35;63.81
71361;BME280;59166;48.908;1.870;2022-08-25T19:56:49;100425.88;;;22.20;64.18
71361;BME280;59166;48.908;1.870;2022-08-25T20:01:50;100425.22;;;22.03;64.50
71361;BME280;59166;48.908;1.870;2022-08-25T20:06:53;100434.59;;;22.02;65.03
71361;BME280;59166;48.908;1.870;2022-08-25T20:11:54;100448.72;;;21.91;65.15
71361;BME280;59166;48.908;1.870;2022-08-25T20:16:54;100463.31;;;21.83;65.60
71361;BME280;59166;48.908;1.870;2022-08-25T20:21:56;100456.72;;;21.76;65.60
71361;BME280;59166;48.908;1.870;2022-08-25T20:26:57;100462.41;;;21.62;65.96
71361;BME280;59166;48.908;1.870;2022-08-25T20:31:58;100466.97;;;21.58;66.15
71361;BME280;59166;48.908;1.870;2022-08-25T20:37:00;100470.25;;;21.52;66.43
71361;BME280;59166;48.908;1.870;2022-08-25T20:42:02;100473.00;;;21.43;66.61
71361;BME280;59166;48.908;1.870;2022-08-25T20:47:05;100475.94;;;21.38;66.95
71361;BME280;59166;48.908;1.870;2022-08-25T20:52:09;100474.00;;;21.30;67.09
71361;BME280;59166;48.908;1.870;2022-08-25T20:57:09;100478.38;;;21.31;67.29
71361;BME280;59166;48.908;1.870;2022-08-25T21:02:10;100472.75;;;21.19;67.69
71361;BME280;59166;48.908;1.870;2022-08-25T21:07:12;100475.69;;;21.14;67.92
71361;BME280;59166;48.908;1.870;2022-08-25T21:12:13;100478.09;;;20.98;68.69
71361;BME280;59166;48.908;1.870;2022-08-25T21:17:15;100475.38;;;20.89;69.57
71361;BME280;59166;48.908;1.870;2022-08-25T21:22:17;100491.50;;;20.82;70.01
71361;BME280;59166;48.908;1.870;2022-08-25T21:27:18;100494.91;;;20.71;70.90
71361;BME280;59166;48.908;1.870;2022-08-25T21:32:19;100501.03;;;20.68;71.21
71361;BME280;59166;48.908;1.870;2022-08-25T21:37:21;100509.59;;;20.66;71.46
71361;BME280;59166;48.908;1.870;2022-08-25T21:42:23;100517.81;;;20.58;72.13
71361;BME280;59166;48.908;1.870;2022-08-25T21:47:24;100519.09;;;20.43;72.62
71361;BME280;59166;48.908;1.870;2022-08-25T21:52:26;100516.38;;;20.43;72.92
71361;BME280;59166;48.908;1.870;2022-08-25T21:57:27;100521.50;;;20.36;73.44
71361;BME280;59166;48.908;1.870;2022-08-25T22:02:28;100522.28;;;20.28;73.74
71361;BME280;59166;48.908;1.870;2022-08-25T22:07:30;100529.22;;;20.17;74.68
71361;BME280;59166;48.908;1.870;2022-08-25T22:12:31;100525.78;;;20.03;75.24
71361;BME280;59166;48.908;1.870;2022-08-25T22:17:32;100518.63;;;19.93;75.71
71361;BME280;59166;48.908;1.870;2022-08-25T22:22:34;100516.81;;;19.88;76.23
71361;BME280;59166;48.908;1.870;2022-08-25T22:27:35;100518.28;;;19.86;76.47
71361;BME280;59166;48.908;1.870;2022-08-25T22:32:36;100513.44;;;19.83;76.31
71361;BME280;59166;48.908;1.870;2022-08-25T22:37:39;100524.50;;;19.78;77.53
71361;BME280;59166;48.908;1.870;2022-08-25T22:42:40;100523.41;;;19.79;77.63
71361;BME280;59166;48.908;1.870;2022-08-25T22:47:41;100520.19;;;19.85;77.39
71361;BME280;59166;48.908;1.870;2022-08-25T22:52:44;100516.94;;;19.75;78.01
71361;BME280;59166;48.908;1.870;2022-08-25T22:57:45;100508.03;;;19.69;78.17
71361;BME280;59166;48.908;1.870;2022-08-25T23:02:46;100509.53;;;19.75;78.77
71361;BME280;59166;48.908;1.870;2022-08-25T23:07:49;100515.13;;;19.70;78.55
71361;BME280;59166;48.908;1.870;2022-08-25T23:12:50;100511.72;;;19.65;79.33
71361;BME280;59166;48.908;1.870;2022-08-25T23:17:51;100508.81;;;19.61;78.93
71361;BME280;59166;48.908;1.870;2022-08-25T23:22:54;100509.72;;;19.57;79.22
71361;BME280;59166;48.908;1.870;2022-08-25T23:27:55;100511.00;;;19.51;79.70
71361;BME280;59166;48.908;1.870;2022-08-25T23:32:56;100513.25;;;19.48;79.78
71361;BME280;59166;48.908;1.870;2022-08-25T23:37:58;100521.28;;;19.45;80.11
71361;BME280;59166;48.908;1.870;2022-08-25T23:42:59;100523.22;;;19.44;80.43
71361;BME280;59166;48.908;1.870;2022-08-25T23:48:00;100520.16;;;19.46;80.46
71361;BME280;59166;48.908;1.870;2022-08-25T23:53:03;100533.84;;;19.46;80.74
71361;BME280;59166;48.908;1.870;2022-08-25T23:58:05;100526.91;;;19.40;80.73
